Airfield :







YOU CAN JOIN US ON...

 
LOGIN :

Register | Disclaimer

   EN    FR    IT 

 









Legend :    VFR   Marginal VFR   IFR   Intensive IFR   Very Intensive IFR
Visi :
Ceiling :
>= 8 km
>= 3000ft
5 to 8 km
1000 to 3000 ft
1500m to 5 km
500 to 1000 ft
800 to 1500m
200 to 500 ft
< 800m
< 200 ft
Symbols :   Thunderstorms  Fog  Heavy snow  Heavy precipitations  Wind > 20 kt






- Airport Elevation : 1663 ft
- IATA code : SLK


KSLK - Adirondack Regional

CURRENT METAR :
  • 111510Z AUTO VRB03KT 1 1/4SM RA BR FEW005 OVC011 21/19 A2960 RMK AO2 P0002 T02110194

EXPIRED METARs :
  • 111501Z AUTO 00000KT 2SM -RA BR FEW005 OVC011 21/19 A2960 RMK AO2 P0000 T02110194
  • 111451Z AUTO 00000KT 1 3/4SM -RA BR SCT005 BKN011 OVC016 21/19 A2960 RMK AO2 SLP011 P0008 60024 T02110194 56008
  • 111434Z AUTO 03003KT 9SM -RA BKN007 BKN018 OVC037 21/19 A2960 RMK AO2 P0008 T02110194
  • 111422Z AUTO 05004KT 3SM RA BR SCT007 BKN037 OVC055 21/20 A2960 RMK AO2 P0007 T02110200
  • 111413Z AUTO 05004KT 3SM RA BR BKN007 BKN029 OVC045 21/19 A2960 RMK AO2 P0005 T02110194
  • 111356Z AUTO 06005KT 3SM RA BR SCT005 BKN015 OVC025 21/19 A2960 RMK AO2 P0001 T02060194
  • 111351Z AUTO 05004KT 2 1/2SM RA BR SCT005 BKN017 OVC025 21/19 A2960 RMK AO2 RAB09 SLP012 P0012 T02060194
  • 111344Z AUTO 04005KT 3SM RA BR FEW005 SCT017 OVC025 21/19 A2960 RMK AO2 RAB09 P0010 T02060194
  • 111313Z AUTO 05006KT 1 3/4SM -RA BR SCT006 OVC023 21/19 A2961 RMK AO2 RAB09 P0002 T02060194
  • 111300Z AUTO 04006KT 4SM BR SCT006 BKN023 OVC030 21/19 A2961 RMK AO2 T02060194
  • 111251Z AUTO 05005KT 5SM BR FEW006 SCT023 OVC034 21/19 A2961 RMK AO2 RAE42 SLP016 P0004 T02060194
  • 111241Z AUTO 05007KT 5SM -RA BR FEW008 SCT023 OVC038 21/19 A2961 RMK AO2 P0004 T02060189

TAF KSLK
Valid from the 11 at 13:00 until the 12 at 12:00 UTC


111314Z 1113/1212 04006KT 6SM -RA BR SCT010 OVC030
TEMPO 1113/1116 2SM RA BR OVC010
FM111600 20006KT P6SM VCSH BKN019
FM112200 VRB04KT P6SM VCTS BKN090CB
FM120000 21006KT P6SM BKN028
KZBW FIR / North America



MET'MAP, your aeronautical weather chart ! - Copyright ORBIFLY December 2007 - Disclaimer

ORBIFLY MET'MAP TEAM :

Programming & Development : Alexandra Zaïnal
Concept & original design : Baudouin d'Aumeries
Assistance for programming : Marc-Olivier Méhu
Technical & hardware support : Manuel Goepfert

Contact : metmap@orbifly.com




SOURCES & CREDITS :

   NOAA